Main page
METAR-TAF:

METAR-TAF

Airports :

Győr, Hungary

Győr-Pér International Airport

latitude: 47-37-28N, longitude: 017-48-49E, elevation: 129 m

Current weather observation

The report was made 39 minutes ago, at 02:15 UTC
Wind 3 kt from the East
Temperature 10°C
Humidity 93%
Pressure 1024 hPa
Visibility 10 km or more
no clouds below 1500 m and no cumulonimbus

METAR: LHPR 280215Z AUTO 10003KT CAVOK 10/09 Q1024 RMK BLU

Time: 04:54 (02:54 UTC)

Forecast

The report was made 9 hours and 39 minutes ago, at 17:15 UTC
Forecast valid from 27 at 18 UTC to 28 at 03 UTC
Wind 7 kt from the North
Visibility 10 km or more
no clouds below 1500 m and no cumulonimbus
Becoming
from 27 at 18 UTC to 27 at 21 UTC
Wind 7 kt from the East/Northeast
Temporary
from 27 at 21 UTC to 28 at 03 UTC
Wind 7 kt from the Southeast

TAF: LHPR 271715Z 2718/2803 36007KT CAVOK BECMG 2718/2721 07007KT TEMPO 2721/2803 13007KT

Weather observations and forecasts of more than 4000 airports (METAR and TAF reports).

The available stations are represented by yellow and red dots on the map.

Hover mouse over dot to see the name of the station.

Then click to see weather observations and forecasts.

To change the map : click on the green buttons with a black cross to zoom in, on the green button with a dash to zoom out, or on the green arrows for adjacent maps.


METAR-TAF: